Terminal Aerodrome Forecast
Issued by NWS Charleston, WV

Home | Current Version | Previous Version | Text Only | Print | Product List | Glossary On
Versions: 1 2 3 4 5 6 7 8 9 10 11 12 13 14 15 16 17 18 19 20 21 22 23 24 25 26 27
771
FTUS41 KRLX 242109 AAC
TAFEKN
TAF AMD
KEKN 242109Z 2421/2518 VRB06G16KT P6SM SKC
     FM250100 17010G20KT P6SM FEW200
     FM251100 19009G18KT 6SM -SHRA BR OVC040
     FM251500 23010G22KT 3SM -SHRA OVC040=

USA.gov is the U.S. government's official web portal to all federal, state and local government web resources and services.